EGPH/EDI METAR and TAF weather

Enter ICAO airport designator
Station Type Date Time Source
EGPH METAR 2019/05/21 20:50 UTC NOAA

EGPH 212050Z 31002KT 9999 SCT036 09/09 Q1018


Station Type Date Time Source
EGPH Decoded METAR 2019/05/21 20:50 UTC NOAA

Edinburgh Airport, United Kingdom (EGPH) 55-57N 003-21W 0M
May 21, 2019 - 04:50 PM EDT / 2019.05.21 2050 UTC
Wind: from the NW (310 degrees) at 2 MPH (2 KT):0
Visibility: greater than 7 mile(s):0
Sky conditions: partly cloudy
Temperature: 48 F (9 C)
Dew Point: 48 F (9 C)
Relative Humidity: 100%
Pressure (altimeter): 30.06 in. Hg (1018 hPa)
ob: EGPH 212050Z 31002KT 9999 SCT036 09/09 Q1018
cycle: 21

Station Type Date Time Source
EGPH TAF 2019/05/21 18:06 UTC NOAA

TAF EGPH 211703Z 2118/2218 VRB04KT 9999 SCT030 PROB30
TEMPO 2118/2123 27012KT 7000 SHRA
BECMG 2200/2203 27010KT PROB30
TEMPO 2211/2218 27018G28KT 7000 SHRA

Example: see airport list